CYVM

Qikiqtarjuaq Airport

Qikiqtarjuaq, Canada
TAF CYVM 251239Z 2513/2601 22010KT P6SM SCT060 BKN100 TEMPO 2513/2601 BKN060 RMK FCST BASED ON AUTO OBS. NXT FCST BY 251900Z
Issued Valid From Valid To
Sep-25 @ 12:39 UTC
(5 hours ago)
Sep-25 @ 13:00 UTC
(5 hours ago)
Sep-26 @ 01:00 UTC
(in 7 hours)
Sep-25 @ 13:00 to Sep-26 @ 01:00
TAF CYVM 251239Z 2513/2601 22010KT P6SM SCT060 BKN100
Wind Visibility Clouds
220° at 10 knots Greater than 6 miles
  • Scattered at 6,000' AGL
  • Broken at 10,000' AGL
Temporary Sep-25 @ 13:00 to Sep-26 @ 01:00
TEMPO 2513/2601 BKN060 RMK FCST BASED ON AUTO OBS. NXT FCST BY 251900Z
Clouds
  • Broken at 6,000' AGL
TAF CYVM 251239Z 2513/2601 22010KT P6SM SCT060 BKN100 TEMPO 2513/2601 BKN060 RMK FCST BASED ON AUTO OBS. NXT FCST BY 251900Z
Issued Sep-25 @ 12:39 UTC
(5 hours ago)
Valid From Sep-25 @ 13:00 UTC
(5 hours ago)
Valid To Sep-26 @ 01:00 UTC
(in 7 hours)
Sep-25 @ 13:00 - Sep-26 @ 01:00
Wind Visibility
220° at 10 knots Greater than 6 miles
Clouds
  • Scattered at 6,000' AGL
  • Broken at 10,000' AGL
Temporary Sep-25 @ 13:00 - Sep-26 @ 01:00
Clouds
  • Broken at 6,000' AGL